Estación municipal de Seva (Osona, P.N. del Montseny)

Consulta los datos en tiempo real de la estación municipal de Seva





Hora UTC 06:05
Temperatura 8.8 ºC
Suelo 15 cm 8.1 ºC
Humedad 95.7 %
Presión 1013.6 hPa
Pluja 0.0 mm
Velocidad viento 1.3 km/h
Dirección viento SSW
Radiación solar 209.0 W/m²

Webcam

Datos diarios 2026-05-06



Hora UTC (invierno +1h; verano +2h)
Temperatura (ºC) Humedad (%) Presión (hPa) Velocidad viento (km/h) Precipitación (mm) Radiación solar (W/m²)
Hora UTC Aire Suelo 15 cm Humedad Presión Vel. Dir. Vel. Max Dir. Intent. máx 5 min. Rad. Sol.
00:05 7.4 5.8 98.5 1012.9 5.0 SE 5.0 SE 0.0 0.1
00:10 7.4 6.0 98.6 1012.9 6.3 ESE 8.8 ESE 0.0 0.1
00:15 7.8 6.2 98.9 1012.9 7.7 SE 11.3 SE 0.0 0.0
00:20 7.9 6.4 98.5 1012.9 7.2 SE 11.6 SE 0.0 0.0
00:25 7.8 6.3 98.0 1012.8 4.9 SE 9.2 SE 0.0 0.1
00:30 7.8 6.2 98.1 1012.8 4.6 SE 7.4 ESE 0.0 0.0
00:35 7.8 6.2 98.3 1012.8 4.2 SSW 8.5 WSW 0.0 0.1
00:40 8.2 6.4 98.3 1012.8 5.4 SSE 11.6 SE 0.0 0.0
00:45 8.2 6.6 97.2 1012.8 3.8 SSE 6.0 SE 0.0 0.1
00:50 8.2 6.5 96.6 1012.7 4.3 ESE 13.4 ESE 0.0 0.0
00:55 8.3 6.5 95.1 1012.7 2.2 E 6.0 E 0.0 0.1
01:00 8.1 6.3 94.8 1012.7 2.1 S 10.6 SW 0.0 0.1
01:05 8.4 6.3 94.0 1012.6 3.0 W 12.0 WSW 0.0 0.1
01:10 8.3 6.2 93.2 1012.7 1.2 NNE 7.1 NNE 0.0 0.1
01:15 8.1 6.0 94.2 1012.7 4.0 E 9.2 ESE 0.0 0.1
01:20 8.0 6.0 95.1 1012.6 5.2 E 9.2 ESE 0.0 0.1
01:25 7.9 5.9 95.2 1012.6 4.8 SE 10.6 ESE 0.0 0.1
01:30 7.7 5.8 95.4 1012.6 2.3 SE 5.6 ESE 0.0 0.1
01:35 7.6 5.6 95.9 1012.6 2.3 SSE 5.3 SSE 0.0 0.1
01:40 7.4 5.5 96.3 1012.6 5.2 ESE 7.8 ESE 0.0 0.0
01:45 7.3 5.5 96.8 1012.5 3.5 SE 4.6 ESE 0.0 0.1
01:50 7.2 5.5 97.1 1012.6 3.1 SE 5.3 SE 0.0 0.1
01:55 7.5 5.6 97.8 1012.5 5.3 SSW 10.2 SSW 0.0 0.1
02:00 7.5 5.6 97.0 1012.5 3.1 S 8.8 SSE 0.0 0.1
02:05 7.5 5.7 96.9 1012.5 4.2 SW 8.5 SSW 0.0 0.0
02:10 7.4 5.5 96.6 1012.5 2.2 SSW 4.2 SW 0.0 0.1
02:15 7.3 5.2 96.7 1012.5 4.1 SSW 8.8 SSW 0.0 0.1
02:20 7.1 5.2 96.6 1012.5 2.0 WSW 7.8 WNW 0.0 0.1
02:25 7.0 5.0 96.7 1012.6 1.0 ESE 3.5 SE 0.0 0.1
02:30 7.0 4.9 96.9 1012.7 1.5 E 4.2 E 0.0 0.1
02:35 6.9 4.9 97.3 1012.7 1.5 S 4.9 SW 0.0 0.1
02:40 6.9 5.0 97.2 1012.7 0.4 ENE 2.5 ESE 0.0 0.1
02:45 6.7 4.9 97.2 1012.7 2.8 E 5.6 E 0.0 0.1
02:50 6.5 4.7 97.2 1012.7 3.8 E 6.0 E 0.0 0.1
02:55 6.4 4.6 97.5 1012.6 5.4 ENE 7.1 ENE 0.0 0.1
03:00 6.2 4.5 97.6 1012.6 6.7 E 8.1 E 0.0 0.0
03:05 6.2 4.4 97.8 1012.6 5.3 E 8.1 E 0.0 0.1
03:10 6.2 4.4 98.0 1012.5 6.2 E 9.2 E 0.0 0.1
03:15 6.0 4.3 97.8 1012.5 4.2 E 6.4 E 0.0 0.1
03:20 5.9 4.2 98.0 1012.5 4.4 E 6.0 E 0.0 0.1
03:25 5.9 4.1 98.2 1012.5 4.5 E 6.4 ENE 0.0 0.1
03:30 5.8 4.0 98.2 1012.5 5.5 E 7.1 E 0.0 0.1
03:35 5.9 4.0 98.5 1012.5 4.7 ESE 7.1 E 0.0 0.0
03:40 6.0 4.0 98.5 1012.6 3.5 ESE 4.6 ESE 0.0 0.0
03:45 5.8 3.8 98.4 1012.6 2.5 E 3.5 ESE 0.0 0.0
03:50 5.7 3.8 98.4 1012.5 3.9 ESE 4.9 ESE 0.0 0.0
03:55 5.6 3.8 98.5 1012.6 3.3 ESE 4.2 ESE 0.0 0.1
04:00 5.6 3.7 98.7 1012.6 2.5 ESE 3.2 ESE 0.0 0.1
04:05 5.8 3.7 99.0 1012.7 3.0 SSE 5.3 SSE 0.0 0.1
04:10 6.1 3.9 99.2 1012.7 4.2 SSE 7.4 SSE 0.0 0.1
04:15 6.2 4.1 99.1 1012.7 2.8 SE 4.9 SSE 0.0 0.1
04:20 6.1 4.1 98.9 1012.6 3.7 SE 6.7 SSE 0.0 0.1
04:25 5.8 3.9 98.7 1012.7 3.8 SSE 6.4 SE 0.0 0.2
04:30 5.8 3.8 99.0 1012.8 4.2 SSE 6.7 S 0.0 0.7
04:35 6.0 3.9 99.1 1012.9 2.7 SSE 4.6 SE 0.0 1.5
04:40 6.0 3.9 99.2 1012.9 4.0 SSE 7.2 SSE 0.0 2.8
04:45 6.0 4.0 99.2 1012.9 3.0 SSE 4.9 SE 0.0 4.4
04:50 6.0 4.1 99.2 1012.9 3.8 SSE 6.4 S 0.0 6.4
04:55 6.1 4.2 99.2 1012.9 3.9 S 6.7 S 0.0 8.6
05:00 6.0 4.0 99.2 1012.9 3.9 SSE 7.1 SSE 0.0 11.2
05:05 6.1 4.0 99.3 1013.0 5.6 SSE 8.5 S 0.0 13.7
05:10 6.1 4.3 99.3 1013.0 5.2 SSE 8.5 SSE 0.0 16.0
05:15 6.2 4.5 99.1 1013.0 4.1 SSE 7.4 S 0.0 18.3
05:20 6.2 4.6 99.1 1013.1 4.1 S 8.1 SSE 0.0 20.6
05:25 6.2 4.5 99.0 1013.2 2.9 SSE 6.4 SSE 0.0 27.8
05:30 6.3 4.5 99.0 1013.2 2.2 SSE 5.6 SSW 0.0 96.9
05:35 6.4 4.6 99.0 1013.3 2.7 SSW 6.4 SSW 0.0 128.7
05:40 6.6 4.8 99.1 1013.3 3.4 SSW 6.7 SSW 0.0 142.2
05:45 6.9 4.9 98.9 1013.4 0.2 SSW 2.1 WSW 0.0 156.0
05:50 7.7 5.0 98.6 1013.4 1.3 SSW 4.2 SW 0.0 169.9
05:55 7.9 5.9 97.3 1013.5 1.7 SSW 3.9 SSW 0.0 183.0
06:00 8.3 7.3 96.4 1013.5 1.4 SSW 6.0 S 0.0 196.4
06:05 8.8 8.1 95.7 1013.6 1.3 SSW 4.2 S 0.0 209.0
Máxima 8.8 8.1 99.3 1013.6 7.7 SE 13.4 ESE 0.0 209.0
Mínima 5.6 3.7 93.2 1012.5
Total 0.0